createdAt,value
2022-09-09T00:01:54.051Z,80.80
2022-09-09T00:04:30.127Z,81.02
2022-09-09T00:07:08.021Z,80.65
2022-09-09T00:09:49.745Z,80.69
2022-09-09T00:15:08.349Z,80.17
2022-09-09T00:17:42.541Z,79.45
2022-09-09T00:20:17.637Z,79.25
2022-09-09T00:22:53.949Z,79.29
2022-09-09T00:25:31.210Z,79.67
2022-09-09T00:28:00.527Z,79.90
2022-09-09T00:30:34.459Z,80.09
2022-09-09T00:33:13.925Z,80.12
2022-09-09T00:35:47.426Z,80.21
2022-09-09T00:38:19.437Z,79.96
2022-09-09T00:40:59.794Z,80.18
2022-09-09T00:43:32.942Z,80.44
2022-09-09T00:46:23.733Z,79.93
2022-09-09T00:49:16.038Z,79.27
2022-09-09T00:51:54.575Z,78.89
2022-09-09T00:54:43.220Z,79.00
2022-09-09T00:57:28.765Z,79.62
2022-09-09T01:00:20.468Z,80.02
2022-09-09T01:02:59.858Z,80.19
2022-09-09T01:05:37.814Z,80.38
2022-09-09T01:08:19.408Z,80.23
2022-09-09T01:10:53.848Z,80.61
2022-09-09T01:13:31.645Z,80.33
2022-09-09T01:16:06.681Z,80.55
2022-09-09T01:18:43.600Z,80.55
2022-09-09T01:21:21.573Z,80.55
2022-09-09T01:24:12.818Z,80.87
2022-09-09T01:27:10.379Z,80.37
2022-09-09T01:29:40.498Z,80.39
2022-09-09T01:32:39.898Z,79.93
2022-09-09T01:35:12.267Z,80.23
2022-09-09T01:37:46.606Z,80.02
2022-09-09T01:40:15.978Z,80.09
2022-09-09T01:42:47.153Z,80.31
2022-09-09T01:45:16.477Z,80.00
2022-09-09T01:47:47.364Z,79.83
2022-09-09T01:50:23.074Z,80.39
2022-09-09T01:52:57.600Z,80.11
2022-09-09T01:55:36.813Z,80.53
2022-09-09T01:58:20.136Z,80.71
2022-09-09T02:01:04.980Z,80.32
2022-09-09T02:03:40.785Z,80.35
2022-09-09T02:06:28.034Z,80.77
2022-09-09T02:09:07.050Z,81.22
2022-09-09T02:11:37.790Z,81.59
2022-09-09T02:14:24.394Z,82.10
2022-09-09T02:16:59.915Z,82.26
2022-09-09T02:19:41.997Z,82.38
2022-09-09T02:22:29.330Z,83.02
2022-09-09T02:25:01.996Z,83.51
2022-09-09T02:27:33.121Z,83.85
2022-09-09T02:30:07.026Z,84.53
2022-09-09T02:32:47.036Z,84.28
2022-09-09T02:35:27.170Z,84.81
2022-09-09T02:38:00.061Z,84.63
2022-09-09T02:40:30.045Z,84.73
2022-09-09T02:43:03.651Z,85.00
2022-09-09T02:45:45.017Z,85.17
2022-09-09T02:48:23.458Z,84.61
2022-09-09T02:51:07.168Z,85.16
2022-09-09T02:53:57.575Z,85.02
2022-09-09T02:56:32.009Z,83.87
2022-09-09T02:59:08.244Z,84.03
2022-09-09T03:01:41.809Z,83.61
2022-09-09T03:04:12.741Z,83.23
2022-09-09T03:06:42.522Z,83.11
2022-09-09T03:09:24.805Z,83.03
2022-09-09T03:11:55.616Z,83.41
2022-09-09T03:14:31.791Z,83.40
2022-09-09T03:17:03.339Z,83.95
2022-09-09T03:19:38.801Z,83.44
2022-09-09T03:22:14.265Z,83.56
2022-09-09T03:24:52.426Z,83.43
2022-09-09T03:27:21.931Z,83.28
2022-09-09T03:29:52.179Z,83.77
2022-09-09T03:35:04.035Z,83.38
2022-09-09T03:37:33.862Z,83.50
2022-09-09T03:40:03.656Z,83.76
2022-09-09T03:42:33.548Z,84.30
2022-09-09T03:45:11.227Z,85.35
2022-09-09T03:47:45.014Z,85.81
2022-09-09T03:50:14.496Z,85.61
2022-09-09T03:52:49.047Z,85.67
2022-09-09T03:55:23.906Z,85.52
2022-09-09T03:57:58.843Z,86.54
2022-09-09T04:00:32.986Z,86.52
2022-09-09T04:03:04.083Z,86.07
2022-09-09T04:05:40.561Z,85.40
2022-09-09T04:08:09.779Z,84.75
2022-09-09T04:10:39.046Z,85.18
2022-09-09T04:13:13.360Z,85.20
2022-09-09T04:15:42.773Z,85.34
2022-09-09T04:18:19.395Z,85.55
2022-09-09T04:20:52.046Z,85.08
2022-09-09T04:23:24.757Z,85.02
2022-09-09T04:25:55.731Z,84.59
2022-09-09T04:28:27.697Z,84.59
2022-09-09T04:30:57.437Z,84.46
2022-09-09T04:33:38.149Z,84.45
2022-09-09T04:36:09.812Z,83.79
2022-09-09T04:38:39.094Z,84.08
2022-09-09T04:41:11.577Z,83.94
2022-09-09T04:43:48.247Z,83.08
2022-09-09T04:46:18.629Z,82.83
2022-09-09T04:48:57.283Z,82.49
2022-09-09T04:51:31.731Z,82.30
2022-09-09T04:54:01.189Z,82.06
2022-09-09T04:56:30.285Z,81.78
2022-09-09T04:59:08.338Z,81.92
2022-09-09T05:01:47.089Z,81.37
2022-09-09T05:04:20.095Z,80.56
2022-09-09T05:06:49.429Z,80.54
2022-09-09T05:09:18.666Z,80.42
2022-09-09T05:11:55.317Z,80.16
2022-09-09T05:14:38.085Z,79.58
2022-09-09T05:17:08.571Z,79.56
2022-09-09T05:19:41.782Z,79.37
2022-09-09T05:22:12.393Z,79.47
2022-09-09T05:24:46.603Z,79.09
2022-09-09T05:27:15.721Z,79.16
2022-09-09T05:29:45.408Z,78.41
2022-09-09T05:32:17.891Z,78.60
2022-09-09T05:34:54.610Z,77.83
2022-09-09T05:37:24.409Z,75.92
2022-09-09T05:39:53.903Z,75.61
2022-09-09T05:42:23.397Z,75.77
2022-09-09T05:44:54.872Z,75.65
2022-09-09T05:47:23.904Z,75.22
2022-09-09T05:49:54.950Z,74.18
2022-09-09T05:52:26.786Z,73.99
2022-09-09T05:55:02.928Z,73.74
2022-09-09T05:57:32.217Z,73.03
2022-09-09T06:00:03.267Z,72.09
2022-09-09T06:02:46.416Z,71.62
2022-09-09T06:05:18.806Z,71.29
2022-09-09T06:07:48.874Z,70.69
2022-09-09T06:10:18.251Z,70.61
2022-09-09T06:12:55.793Z,70.19
2022-09-09T06:15:30.436Z,69.89
2022-09-09T06:17:59.964Z,67.91
2022-09-09T06:20:32.653Z,67.57
2022-09-09T06:23:07.288Z,67.07
2022-09-09T06:25:36.861Z,67.12
2022-09-09T06:28:05.938Z,67.55
2022-09-09T06:33:22.070Z,66.29
2022-09-09T06:35:58.680Z,64.96
2022-09-09T06:38:28.381Z,64.40
2022-09-09T06:40:58.818Z,63.17
2022-09-09T06:43:32.953Z,62.62
2022-09-09T06:46:07.007Z,61.87
2022-09-09T06:48:37.061Z,59.48
2022-09-09T06:51:11.738Z,58.17
2022-09-09T06:53:43.278Z,57.38
2022-09-09T06:56:26.128Z,56.82
2022-09-09T06:59:00.714Z,54.49
2022-09-09T07:01:34.111Z,53.58
2022-09-09T07:04:08.674Z,53.36
2022-09-09T07:06:43.732Z,53.41
2022-09-09T07:09:16.908Z,54.43
2022-09-09T07:11:51.230Z,54.95
2022-09-09T07:14:22.589Z,54.89
2022-09-09T07:16:59.833Z,53.62
2022-09-09T07:19:35.130Z,53.30
2022-09-09T07:22:11.369Z,52.45
2022-09-09T07:24:40.868Z,52.19
2022-09-09T07:27:09.917Z,51.76
2022-09-09T07:29:40.084Z,51.40
2022-09-09T07:32:10.794Z,50.81
2022-09-09T07:34:40.792Z,49.88
2022-09-09T07:37:13.372Z,50.01
2022-09-09T07:39:45.652Z,50.02
2022-09-09T07:42:15.482Z,49.24
2022-09-09T07:44:44.703Z,48.41
2022-09-09T07:47:21.819Z,48.97
2022-09-09T07:49:53.793Z,49.00
2022-09-09T07:52:32.159Z,49.49
2022-09-09T07:55:06.557Z,48.33
2022-09-09T07:57:46.254Z,47.57
2022-09-09T08:00:19.361Z,47.00
2022-09-09T08:02:54.788Z,47.22
2022-09-09T08:05:25.153Z,45.81
2022-09-09T08:07:57.517Z,46.73
2022-09-09T08:10:33.888Z,46.26
2022-09-09T08:13:18.758Z,46.38
2022-09-09T08:15:50.868Z,45.90
2022-09-09T08:18:20.213Z,45.66
2022-09-09T08:20:50.548Z,46.39
2022-09-09T08:23:22.377Z,46.40
2022-09-09T08:25:51.297Z,46.91
2022-09-09T08:28:20.713Z,46.49
2022-09-09T08:30:51.753Z,46.72
2022-09-09T08:33:25.658Z,46.57
2022-09-09T08:35:59.918Z,45.79
2022-09-09T08:38:31.443Z,45.05
2022-09-09T08:41:13.311Z,44.69
2022-09-09T08:43:45.602Z,45.47
2022-09-09T08:46:31.803Z,45.73
2022-09-09T08:49:07.813Z,46.14
2022-09-09T08:51:37.617Z,46.81
2022-09-09T08:54:11.862Z,46.79
2022-09-09T08:56:46.805Z,47.00
2022-09-09T08:59:21.949Z,46.92
2022-09-09T09:02:04.023Z,47.14
2022-09-09T09:04:59.690Z,46.90
2022-09-09T09:07:42.965Z,46.33
2022-09-09T09:10:40.570Z,45.44
2022-09-09T09:13:21.668Z,45.33
2022-09-09T09:15:59.473Z,45.20
2022-09-09T09:18:29.858Z,43.93
2022-09-09T09:21:11.090Z,44.53
2022-09-09T09:23:52.677Z,45.36
2022-09-09T09:26:29.451Z,45.98
2022-09-09T09:29:01.546Z,46.36
2022-09-09T09:31:30.890Z,45.69
2022-09-09T09:34:00.764Z,46.11
2022-09-09T09:36:42.046Z,46.29
2022-09-09T09:42:14.771Z,44.63
2022-09-09T09:44:46.457Z,43.67
2022-09-09T09:47:24.470Z,43.35
2022-09-09T09:50:21.301Z,43.95
2022-09-09T09:52:58.722Z,43.73
2022-09-09T09:55:32.754Z,44.87
2022-09-09T09:58:18.762Z,46.23
2022-09-09T10:00:53.312Z,46.91
2022-09-09T10:03:32.774Z,47.07
2022-09-09T10:06:03.917Z,46.87
2022-09-09T10:08:37.962Z,44.79
2022-09-09T10:11:29.882Z,45.73
2022-09-09T10:14:10.723Z,45.67
2022-09-09T10:16:54.977Z,45.21
2022-09-09T10:19:33.110Z,45.76
2022-09-09T10:22:14.699Z,46.34
2022-09-09T10:25:11.650Z,46.73
2022-09-09T10:27:54.343Z,46.13
2022-09-09T10:30:36.220Z,47.36
2022-09-09T10:33:12.271Z,46.68
2022-09-09T10:35:49.205Z,47.21
2022-09-09T10:38:20.472Z,47.00
2022-09-09T10:41:15.007Z,47.53
2022-09-09T10:44:22.946Z,47.24
2022-09-09T10:47:09.884Z,45.98
2022-09-09T10:50:00.883Z,45.45
2022-09-09T10:52:39.237Z,46.16
2022-09-09T10:55:16.589Z,45.48
2022-09-09T10:57:49.331Z,45.34
2022-09-09T11:00:22.471Z,45.62
2022-09-09T11:02:58.720Z,45.13
2022-09-09T11:05:34.446Z,44.07
2022-09-09T11:08:09.204Z,43.62
2022-09-09T11:10:43.471Z,42.92
2022-09-09T11:13:23.463Z,43.36
2022-09-09T11:15:58.019Z,43.58
2022-09-09T11:18:35.019Z,44.25
2022-09-09T11:21:16.377Z,44.71
2022-09-09T11:23:50.710Z,45.45
2022-09-09T11:26:28.672Z,45.21
2022-09-09T11:29:22.705Z,45.45
2022-09-09T11:32:12.225Z,46.44
2022-09-09T11:34:59.947Z,46.78
2022-09-09T11:37:47.793Z,45.83
2022-09-09T11:40:26.290Z,45.70
2022-09-09T11:43:08.712Z,44.61
2022-09-09T11:45:39.437Z,42.96
2022-09-09T11:48:26.254Z,42.53
2022-09-09T11:51:10.082Z,43.69
2022-09-09T11:53:54.202Z,43.39
2022-09-09T11:56:46.393Z,44.41
2022-09-09T11:59:25.148Z,45.03
2022-09-09T12:02:00.227Z,45.59
2022-09-09T12:04:51.374Z,46.35
2022-09-09T12:07:38.966Z,47.03
2022-09-09T12:10:24.780Z,47.64
2022-09-09T12:12:54.030Z,48.11
2022-09-09T12:15:29.601Z,48.39
2022-09-09T12:18:04.161Z,49.05
2022-09-09T12:20:38.258Z,48.32
2022-09-09T12:23:33.848Z,47.41
2022-09-09T12:26:19.091Z,47.60
2022-09-09T12:29:05.147Z,47.71
2022-09-09T12:31:45.129Z,48.01
2022-09-09T12:34:40.098Z,47.63
2022-09-09T12:37:18.751Z,47.73
2022-09-09T12:39:55.079Z,46.78
2022-09-09T12:42:25.685Z,46.62
2022-09-09T12:44:59.307Z,45.04
2022-09-09T12:47:38.608Z,44.37
2022-09-09T12:57:07.112Z,44.17
2022-09-09T12:59:42.527Z,43.90
2022-09-09T13:02:25.262Z,44.95
2022-09-09T13:04:56.029Z,44.72
2022-09-09T13:07:26.034Z,44.00
2022-09-09T13:09:55.004Z,44.66
2022-09-09T13:12:26.414Z,44.79
2022-09-09T13:14:57.990Z,44.88
2022-09-09T13:17:29.581Z,45.03
2022-09-09T13:20:00.027Z,45.81
2022-09-09T13:22:42.715Z,45.07
2022-09-09T13:25:23.136Z,44.95
2022-09-09T13:28:06.950Z,44.55
2022-09-09T13:30:40.775Z,45.05
2022-09-09T13:33:29.953Z,45.31
2022-09-09T13:36:03.975Z,45.27
2022-09-09T13:41:24.178Z,44.68
2022-09-09T13:43:55.939Z,44.34
2022-09-09T13:46:31.464Z,43.80
2022-09-09T13:49:02.782Z,44.08
2022-09-09T13:51:37.885Z,44.39
2022-09-09T13:54:08.810Z,43.87
2022-09-09T13:56:39.250Z,44.09
2022-09-09T13:59:16.275Z,43.81
2022-09-09T14:01:45.580Z,43.00
2022-09-09T14:04:15.882Z,43.35
2022-09-09T14:06:45.579Z,43.23
2022-09-09T14:09:18.710Z,43.08
2022-09-09T14:11:48.738Z,43.17
2022-09-09T14:16:54.996Z,42.46
2022-09-09T14:19:31.451Z,42.99
2022-09-09T14:22:01.090Z,43.30
2022-09-09T14:24:36.222Z,43.02
2022-09-09T14:27:05.740Z,42.90
2022-09-09T14:29:36.757Z,43.88
2022-09-09T14:32:12.819Z,44.09
2022-09-09T14:34:51.418Z,44.02
2022-09-09T14:37:34.463Z,43.99
2022-09-09T14:40:04.167Z,44.45
2022-09-09T14:42:33.304Z,44.75
2022-09-09T14:45:04.437Z,45.07
2022-09-09T14:47:34.110Z,45.65
2022-09-09T14:50:04.686Z,45.42
2022-09-09T14:52:34.821Z,45.69
2022-09-09T14:55:09.074Z,46.09
2022-09-09T15:00:20.476Z,47.05
2022-09-09T15:02:49.497Z,46.65
2022-09-09T15:05:19.253Z,47.12
2022-09-09T15:07:48.977Z,47.18
2022-09-09T15:10:19.418Z,47.41
2022-09-09T15:12:54.687Z,48.03
2022-09-09T15:15:27.375Z,48.24
2022-09-09T15:17:59.075Z,48.67
2022-09-09T15:20:35.992Z,48.95
2022-09-09T15:23:14.523Z,49.27
2022-09-09T15:25:53.885Z,49.84
2022-09-09T15:28:23.896Z,50.13
2022-09-09T15:31:02.686Z,49.92
2022-09-09T15:33:32.550Z,50.60
2022-09-09T15:36:01.656Z,50.74
2022-09-09T15:38:30.892Z,50.44
2022-09-09T15:41:00.374Z,50.60
2022-09-09T15:43:29.725Z,50.81
2022-09-09T15:46:16.142Z,51.47
2022-09-09T15:48:47.322Z,51.27
2022-09-09T15:51:41.271Z,51.25
2022-09-09T15:54:17.410Z,51.29
2022-09-09T15:56:48.560Z,51.39
2022-09-09T15:59:17.808Z,51.91
2022-09-09T16:01:51.754Z,52.22
2022-09-09T16:04:23.908Z,52.30
2022-09-09T16:06:59.160Z,53.26
2022-09-09T16:09:28.964Z,52.98
2022-09-09T16:12:01.335Z,53.20
2022-09-09T16:14:41.988Z,53.60
2022-09-09T16:17:13.196Z,53.71
2022-09-09T16:19:42.342Z,53.46
2022-09-09T16:22:13.870Z,53.39
2022-09-09T16:24:48.281Z,53.79
2022-09-09T16:27:17.493Z,53.92
2022-09-09T16:29:46.505Z,54.09
2022-09-09T16:32:17.584Z,54.47
2022-09-09T16:34:46.805Z,54.33
2022-09-09T16:37:16.725Z,54.14
2022-09-09T16:39:46.035Z,54.26
2022-09-09T16:42:15.212Z,54.87
2022-09-09T16:44:44.567Z,54.71
2022-09-09T16:47:18.813Z,54.87
2022-09-09T16:49:50.091Z,55.00
2022-09-09T16:52:24.422Z,55.44
2022-09-09T16:54:54.520Z,55.40
2022-09-09T16:57:24.166Z,55.62
2022-09-09T16:59:54.777Z,56.51
2022-09-09T17:02:24.956Z,57.06
2022-09-09T17:05:07.042Z,57.33
2022-09-09T17:07:36.390Z,56.89
2022-09-09T17:10:11.838Z,56.78
2022-09-09T17:12:42.469Z,56.73
2022-09-09T17:15:18.629Z,56.84
2022-09-09T17:17:49.674Z,56.65
2022-09-09T17:20:26.084Z,56.99
2022-09-09T17:22:55.300Z,57.22
2022-09-09T17:25:24.975Z,57.20
2022-09-09T17:27:54.379Z,57.95
2022-09-09T17:30:23.879Z,57.82
2022-09-09T17:32:54.356Z,57.79
2022-09-09T17:35:31.654Z,57.69
2022-09-09T17:38:01.597Z,57.72
2022-09-09T17:40:31.001Z,57.95
2022-09-09T17:43:01.955Z,58.51
2022-09-09T17:45:36.945Z,59.05
2022-09-09T17:48:07.688Z,59.65
2022-09-09T17:50:44.261Z,60.51
2022-09-09T17:53:13.739Z,60.58
2022-09-09T17:55:43.014Z,61.01
2022-09-09T17:58:12.165Z,61.35
2022-09-09T18:00:41.569Z,61.27
2022-09-09T18:03:11.277Z,61.38
2022-09-09T18:05:40.713Z,61.76
2022-09-09T18:08:16.796Z,62.17
2022-09-09T18:10:55.709Z,62.09
2022-09-09T18:13:25.309Z,61.19
2022-09-09T18:15:54.434Z,61.50
2022-09-09T18:18:24.231Z,61.44
2022-09-09T18:21:06.441Z,61.34
2022-09-09T18:23:42.625Z,61.64
2022-09-09T18:26:25.755Z,61.46
2022-09-09T18:28:56.900Z,62.04
2022-09-09T18:31:28.323Z,62.01
2022-09-09T18:33:59.151Z,61.54
2022-09-09T18:36:33.686Z,61.87
2022-09-09T18:39:07.421Z,61.68
2022-09-09T18:41:39.525Z,61.88
2022-09-09T18:44:12.980Z,62.10
2022-09-09T18:46:47.719Z,62.56
2022-09-09T18:49:19.073Z,62.43
2022-09-09T18:51:48.679Z,62.11
2022-09-09T18:54:22.385Z,62.53
2022-09-09T18:56:56.660Z,62.63
2022-09-09T18:59:26.295Z,62.55
2022-09-09T19:01:56.140Z,62.87
2022-09-09T19:04:36.427Z,63.93
2022-09-09T19:07:05.953Z,63.75
2022-09-09T19:09:36.987Z,64.81
2022-09-09T19:12:07.509Z,64.46
2022-09-09T19:14:37.462Z,65.20
2022-09-09T19:17:07.320Z,64.84
2022-09-09T19:19:36.466Z,64.50
2022-09-09T19:22:08.741Z,64.34
2022-09-09T19:24:40.610Z,65.00
2022-09-09T19:27:15.411Z,64.80
2022-09-09T19:29:52.117Z,65.21
2022-09-09T19:35:20.562Z,65.93
2022-09-09T19:37:49.802Z,66.65
2022-09-09T19:40:21.897Z,66.90
2022-09-09T19:42:53.821Z,66.99
2022-09-09T19:45:23.279Z,67.30
2022-09-09T19:47:52.538Z,66.39
2022-09-09T19:50:22.820Z,67.32
2022-09-09T19:52:52.403Z,67.78
2022-09-09T19:55:30.127Z,68.42
2022-09-09T19:57:59.301Z,68.81
2022-09-09T20:00:28.457Z,68.90
2022-09-09T20:03:18.646Z,69.70
2022-09-09T20:05:53.316Z,69.45
2022-09-09T20:08:22.472Z,68.35
2022-09-09T20:11:01.998Z,68.33
2022-09-09T20:13:42.346Z,68.21
2022-09-09T20:16:16.273Z,67.86
2022-09-09T20:18:53.877Z,68.39
2022-09-09T20:21:32.966Z,68.09
2022-09-09T20:24:05.531Z,67.97
2022-09-09T20:26:37.749Z,67.69
2022-09-09T20:29:11.235Z,67.58
2022-09-09T20:31:48.025Z,67.38
2022-09-09T20:34:21.525Z,67.42
2022-09-09T20:36:54.062Z,66.78
2022-09-09T20:39:25.355Z,67.16
2022-09-09T20:41:56.940Z,66.96
2022-09-09T20:44:27.338Z,66.87
2022-09-09T20:47:02.347Z,67.00
2022-09-09T20:49:37.035Z,67.10
2022-09-09T20:52:11.864Z,67.08
2022-09-09T20:54:41.774Z,66.72
2022-09-09T20:57:14.296Z,66.46
2022-09-09T20:59:44.335Z,66.60
2022-09-09T21:02:13.708Z,66.97
2022-09-09T21:04:44.327Z,67.08
2022-09-09T21:07:13.443Z,67.17
2022-09-09T21:09:42.772Z,66.79
2022-09-09T21:12:19.502Z,66.93
2022-09-09T21:14:49.188Z,66.88
2022-09-09T21:17:18.291Z,67.54
2022-09-09T21:22:28.434Z,68.12
2022-09-09T21:25:02.619Z,68.22
2022-09-09T21:27:34.241Z,67.92
2022-09-09T21:30:03.871Z,67.83
2022-09-09T21:32:33.233Z,67.77
2022-09-09T21:35:08.453Z,67.81
2022-09-09T21:37:37.803Z,67.59
2022-09-09T21:42:50.738Z,67.63
2022-09-09T21:45:20.245Z,67.16
2022-09-09T21:47:50.672Z,67.65
2022-09-09T21:50:24.494Z,67.77
2022-09-09T21:52:57.559Z,68.01
2022-09-09T21:55:26.947Z,68.28
2022-09-09T21:57:58.792Z,68.22
2022-09-09T22:00:33.315Z,68.57
2022-09-09T22:03:02.564Z,68.78
2022-09-09T22:08:22.112Z,68.91
2022-09-09T22:10:51.123Z,69.21
2022-09-09T22:13:22.280Z,69.49
2022-09-09T22:15:51.735Z,69.27
2022-09-09T22:18:20.842Z,69.36
2022-09-09T22:20:50.040Z,69.58
2022-09-09T22:23:21.308Z,70.06
2022-09-09T22:25:54.251Z,70.35
2022-09-09T22:28:25.407Z,70.47
2022-09-09T22:31:07.861Z,71.28
2022-09-09T22:33:37.038Z,70.07
2022-09-09T22:36:06.762Z,70.24
2022-09-09T22:38:36.371Z,70.01
2022-09-09T22:41:05.804Z,70.30
2022-09-09T22:43:36.979Z,70.13
2022-09-09T22:46:06.434Z,70.32
2022-09-09T22:48:36.516Z,70.58
2022-09-09T22:51:06.650Z,70.66
2022-09-09T22:53:36.209Z,71.16
2022-09-09T22:56:07.331Z,71.52
2022-09-09T22:58:39.468Z,72.30
2022-09-09T23:01:15.884Z,72.66
2022-09-09T23:03:47.169Z,72.17
2022-09-09T23:06:26.321Z,72.74
2022-09-09T23:08:57.700Z,72.53
2022-09-09T23:11:30.695Z,72.55
2022-09-09T23:14:03.577Z,73.00
2022-09-09T23:16:39.233Z,72.88
2022-09-09T23:19:11.601Z,73.79
2022-09-09T23:21:47.804Z,75.19
2022-09-09T23:24:18.755Z,74.93
2022-09-09T23:26:52.873Z,75.31
2022-09-09T23:29:23.795Z,76.94
2022-09-09T23:31:52.907Z,76.95
2022-09-09T23:34:21.967Z,76.98
2022-09-09T23:36:56.226Z,78.55
2022-09-09T23:39:25.469Z,78.19
2022-09-09T23:41:54.612Z,78.31
2022-09-09T23:47:01.528Z,79.68
2022-09-09T23:49:30.619Z,80.04
2022-09-09T23:52:00.913Z,80.08
2022-09-09T23:54:40.076Z,81.57
2022-09-09T23:57:09.117Z,80.22
2022-09-09T23:59:40.059Z,81.22
